createdAt,value
2016-04-12T00:00:30.722Z,77.49
2016-04-12T00:02:30.759Z,77.68
2016-04-12T00:03:31.089Z,77.49
2016-04-12T00:04:30.780Z,77.58
2016-04-12T00:05:30.797Z,77.68
2016-04-12T00:06:30.816Z,77.68
2016-04-12T00:07:30.834Z,77.87
2016-04-12T00:08:30.858Z,77.77
2016-04-12T00:09:30.867Z,77.58
2016-04-12T00:10:30.885Z,77.68
2016-04-12T00:11:30.903Z,77.68
2016-04-12T00:12:30.922Z,77.58
2016-04-12T00:13:30.940Z,77.49
2016-04-12T00:14:30.942Z,77.68
2016-04-12T00:15:30.977Z,78.25
2016-04-12T00:16:30.869Z,78.16
2016-04-12T00:17:31.013Z,77.97
2016-04-12T00:18:31.016Z,77.97
2016-04-12T00:19:31.033Z,77.77
2016-04-12T00:20:31.052Z,77.97
2016-04-12T00:21:31.070Z,77.87
2016-04-12T00:22:31.089Z,78.16
2016-04-12T00:23:31.107Z,78.02
2016-04-12T00:24:31.126Z,77.83
2016-04-12T00:25:31.159Z,78.63
2016-04-12T00:26:31.147Z,77.83
2016-04-12T00:27:31.195Z,78.44
2016-04-12T00:28:31.183Z,78.4
2016-04-12T00:29:31.202Z,78.5
2016-04-12T00:30:31.218Z,78.5
2016-04-12T00:31:31.283Z,78.59
2016-04-12T00:32:34.267Z,78.5
2016-04-12T00:33:31.267Z,78.3
2016-04-12T00:34:31.270Z,78.69
2016-04-12T00:35:31.287Z,78.88
2016-04-12T00:36:31.322Z,78.88
2016-04-12T00:37:31.340Z,78.88
2016-04-12T00:38:31.343Z,78.97
2016-04-12T00:39:31.362Z,78.97
2016-04-12T00:40:31.379Z,78.97
2016-04-12T00:41:31.398Z,78.97
2016-04-12T00:42:31.728Z,78.78
2016-04-12T00:43:31.732Z,79.16
2016-04-12T00:44:31.437Z,79.06
2016-04-12T00:45:31.455Z,79.06
2016-04-12T00:46:31.615Z,79.35
2016-04-12T00:47:31.492Z,79.25
2016-04-12T00:48:31.511Z,79.44
2016-04-12T00:49:31.528Z,78.97
2016-04-12T00:50:31.548Z,79.35
2016-04-12T00:51:31.566Z,79.35
2016-04-12T00:52:31.569Z,79.44
2016-04-12T00:53:31.586Z,79.54
2016-04-12T00:54:31.605Z,79.63
2016-04-12T00:55:31.639Z,79.35
2016-04-12T00:56:31.642Z,79.54
2016-04-12T00:57:31.660Z,79.44
2016-04-12T00:58:31.677Z,79.25
2016-04-12T00:59:31.697Z,79.35
2016-04-12T01:00:31.699Z,79.63
2016-04-12T01:01:31.732Z,79.44
2016-04-12T01:02:31.736Z,79.44
2016-04-12T01:03:31.754Z,79.44
2016-04-12T01:04:31.773Z,79.83
2016-04-12T01:05:31.790Z,79.44
2016-04-12T01:06:31.793Z,79.83
2016-04-12T01:07:31.827Z,79.63
2016-04-12T01:08:31.846Z,79.83
2016-04-12T01:09:31.848Z,79.92
2016-04-12T01:10:31.867Z,79.92
2016-04-12T01:11:31.885Z,80.02
2016-04-12T01:12:31.920Z,79.92
2016-04-12T01:13:31.922Z,80.02
2016-04-12T01:14:31.939Z,79.92
2016-04-12T01:15:31.973Z,80.02
2016-04-12T01:16:31.976Z,80.21
2016-04-12T01:17:31.995Z,80.02
2016-04-12T01:18:31.997Z,80.11
2016-04-12T01:19:32.016Z,80.21
2016-04-12T01:20:32.034Z,80.21
2016-04-12T01:21:32.052Z,80.02
2016-04-12T01:22:31.321Z,79.83
2016-04-12T01:23:32.074Z,80.02
2016-04-12T01:24:32.108Z,80.02
2016-04-12T01:25:32.110Z,80.02
2016-04-12T01:26:32.128Z,80.11
2016-04-12T01:27:32.147Z,80.3
2016-04-12T01:28:32.165Z,79.83
2016-04-12T01:29:32.199Z,79.92
2016-04-12T01:30:32.186Z,80.21
2016-04-12T01:31:32.220Z,80.02
2016-04-12T01:32:32.223Z,80.58
2016-04-12T01:33:32.241Z,80.49
2016-04-12T01:34:32.259Z,80.49
2016-04-12T01:35:32.293Z,80.4
2016-04-12T01:36:32.296Z,80.4
2016-04-12T01:37:32.314Z,80.11
2016-04-12T01:38:32.317Z,80.11
2016-04-12T01:39:32.335Z,80.4
2016-04-12T01:40:32.415Z,80.4
2016-04-12T01:41:32.418Z,80.68
2016-04-12T01:42:32.703Z,80.68
2016-04-12T01:43:32.408Z,80.68
2016-04-12T01:44:32.459Z,80.68
2016-04-12T01:45:32.461Z,80.77
2016-04-12T01:46:32.495Z,81.06
2016-04-12T01:47:32.513Z,80.58
2016-04-12T01:48:32.531Z,80.68
2016-04-12T01:49:32.534Z,80.4
2016-04-12T01:50:32.536Z,80.49
2016-04-12T01:51:32.539Z,80.77
2016-04-12T01:52:32.542Z,81.35
2016-04-12T01:53:32.560Z,81.44
2016-04-12T01:54:32.578Z,81.35
2016-04-12T01:55:32.597Z,81.35
2016-04-12T01:56:32.616Z,81.35
2016-04-12T01:57:32.634Z,80.68
2016-04-12T01:58:32.964Z,80.49
2016-04-12T01:59:32.654Z,80.68
2016-04-12T02:00:32.689Z,80.58
2016-04-12T02:01:32.691Z,80.58
2016-04-12T02:02:32.710Z,80.77
2016-04-12T02:03:32.728Z,80.87
2016-04-12T02:04:32.746Z,80.68
2016-04-12T02:05:32.765Z,80.77
2016-04-12T02:06:32.767Z,80.87
2016-04-12T02:07:32.801Z,80.87
2016-04-12T02:08:32.804Z,80.77
2016-04-12T02:09:32.822Z,80.87
2016-04-12T02:10:32.840Z,80.58
2016-04-12T02:11:32.108Z,80.68
2016-04-12T02:12:32.876Z,80.68
2016-04-12T02:14:32.914Z,80.49
2016-04-12T02:15:32.931Z,80.49
2016-04-12T02:16:32.934Z,80.68
2016-04-12T02:17:32.953Z,80.58
2016-04-12T02:18:32.972Z,80.58
2016-04-12T02:19:32.975Z,80.58
2016-04-12T02:20:33.008Z,80.68
2016-04-12T02:21:33.011Z,81.35
2016-04-12T02:22:33.029Z,80.96
2016-04-12T02:23:33.047Z,81.16
2016-04-12T02:24:33.066Z,80.96
2016-04-12T02:25:33.084Z,81.54
2016-04-12T02:26:33.102Z,80.68
2016-04-12T02:27:33.105Z,81.35
2016-04-12T02:28:33.123Z,81.06
2016-04-12T02:29:33.157Z,81.44
2016-04-12T02:30:33.160Z,81.25
2016-04-12T02:31:33.193Z,81.16
2016-04-12T02:32:33.196Z,81.06
2016-04-12T02:33:47.296Z,81.25
2016-04-12T02:34:33.218Z,80.96
2016-04-12T02:35:33.252Z,81.25
2016-04-12T02:36:33.271Z,81.06
2016-04-12T02:37:47.369Z,81.16
2016-04-12T02:38:33.291Z,80.87
2016-04-12T02:39:33.309Z,81.16
2016-04-12T02:40:33.327Z,81.06
2016-04-12T02:41:33.330Z,81.16
2016-04-12T02:42:33.664Z,81.06
2016-04-12T02:43:33.367Z,80.96
2016-04-12T02:44:33.385Z,81.06
2016-04-12T02:45:33.404Z,81.06
2016-04-12T02:46:33.422Z,80.96
2016-04-12T02:47:33.739Z,80.96
2016-04-12T02:48:33.458Z,81.06
2016-04-12T02:49:33.776Z,81.16
2016-04-12T02:50:33.479Z,81.16
2016-04-12T02:51:33.813Z,81.44
2016-04-12T02:52:33.516Z,81.63
2016-04-12T02:53:33.550Z,81.25
2016-04-12T02:54:33.552Z,81.63
2016-04-12T02:55:33.571Z,81.73
2016-04-12T02:56:33.589Z,81.73
2016-04-12T02:57:33.591Z,81.44
2016-04-12T02:58:33.610Z,81.63
2016-04-12T02:59:33.627Z,81.54
2016-04-12T03:00:33.646Z,81.54
2016-04-12T03:01:47.746Z,81.44
2016-04-12T03:02:33.699Z,81.44
2016-04-12T03:03:33.701Z,81.54
2016-04-12T03:04:33.704Z,81.73
2016-04-12T03:05:33.725Z,81.54
2016-04-12T03:06:33.743Z,81.63
2016-04-12T03:07:33.762Z,81.54
2016-04-12T03:08:33.779Z,81.44
2016-04-12T03:09:33.798Z,81.25
2016-04-12T03:10:33.801Z,81.44
2016-04-12T03:11:33.820Z,81.35
2016-04-12T03:12:33.838Z,81.54
2016-04-12T03:13:33.856Z,81.44
2016-04-12T03:14:33.875Z,82.01
2016-04-12T03:15:33.892Z,81.54
2016-04-12T03:16:33.926Z,81.25
2016-04-12T03:17:33.914Z,81.44
2016-04-12T03:18:33.931Z,82.01
2016-04-12T03:19:33.791Z,81.82
2016-04-12T03:20:33.967Z,82.2
2016-04-12T03:21:33.985Z,81.73
2016-04-12T03:22:33.987Z,81.63
2016-04-12T03:23:34.006Z,82.39
2016-04-12T03:24:34.039Z,82.29
2016-04-12T03:25:34.042Z,81.73
2016-04-12T03:26:34.061Z,81.82
2016-04-12T03:27:34.063Z,81.54
2016-04-12T03:28:34.097Z,81.82
2016-04-12T03:29:34.099Z,81.63
2016-04-12T03:30:34.133Z,82.1
2016-04-12T03:31:34.136Z,81.25
2016-04-12T03:32:34.154Z,81.54
2016-04-12T03:33:34.173Z,81.54
2016-04-12T03:34:34.191Z,81.92
2016-04-12T03:35:34.210Z,81.35
2016-04-12T03:36:34.227Z,81.25
2016-04-12T03:37:34.230Z,81.06
2016-04-12T03:38:34.265Z,81.25
2016-04-12T03:39:34.268Z,80.49
2016-04-12T03:40:34.286Z,80.87
2016-04-12T03:41:34.320Z,80.3
2016-04-12T03:42:34.323Z,80.21
2016-04-12T03:43:34.340Z,80.68
2016-04-12T03:44:34.343Z,80.21
2016-04-12T03:45:34.377Z,80.02
2016-04-12T03:46:34.395Z,80.05
2016-04-12T03:47:34.398Z,80.3
2016-04-12T03:48:34.416Z,80.3
2016-04-12T03:49:34.419Z,80.21
2016-04-12T03:50:34.453Z,79.63
2016-04-12T03:51:34.455Z,80.49
2016-04-12T03:52:34.474Z,80.4
2016-04-12T03:53:34.492Z,80.4
2016-04-12T03:54:34.823Z,80.4
2016-04-12T03:55:34.529Z,80.58
2016-04-12T03:56:34.547Z,80.77
2016-04-12T03:57:34.566Z,80.58
2016-04-12T03:58:34.568Z,80.49
2016-04-12T03:59:34.587Z,81.44
2016-04-12T04:00:33.855Z,81.25
2016-04-12T04:01:34.624Z,81.16
2016-04-12T04:02:34.641Z,81.06
2016-04-12T04:03:34.660Z,81.25
2016-04-12T04:04:34.678Z,81.16
2016-04-12T04:05:34.697Z,81.06
2016-04-12T04:06:34.699Z,81.35
2016-04-12T04:07:34.732Z,81.06
2016-04-12T04:08:34.735Z,81.16
2016-04-12T04:09:34.755Z,81.44
2016-04-12T04:10:34.788Z,81.44
2016-04-12T04:11:34.776Z,81.44
2016-04-12T04:12:34.809Z,81.73
2016-04-12T04:13:34.827Z,81.44
2016-04-12T04:14:34.846Z,81.73
2016-04-12T04:15:34.879Z,81.44
2016-04-12T04:16:35.164Z,81.54
2016-04-12T04:17:34.884Z,81.35
2016-04-12T04:18:34.904Z,81.44
2016-04-12T04:19:34.922Z,81.44
2016-04-12T04:20:34.925Z,81.54
2016-04-12T04:21:34.958Z,81.35
2016-04-12T04:22:34.961Z,81.44
2016-04-12T04:23:34.995Z,81.35
2016-04-12T04:24:34.997Z,81.54
2016-04-12T04:25:35.000Z,81.54
2016-04-12T04:26:35.019Z,81.25
2016-04-12T04:27:35.053Z,82.1
2016-04-12T04:28:35.071Z,81.16
2016-04-12T04:29:35.089Z,81.25
2016-04-12T04:30:35.092Z,81.54
2016-04-12T04:31:35.110Z,81.44
2016-04-12T04:32:35.160Z,81.54
2016-04-12T04:33:35.147Z,81.54
2016-04-12T04:34:35.149Z,81.54
2016-04-12T04:35:35.183Z,81.35
2016-04-12T04:36:35.185Z,81.16
2016-04-12T04:37:35.205Z,81.06
2016-04-12T04:38:35.223Z,81.16
2016-04-12T04:39:35.226Z,81.25
2016-04-12T04:40:35.260Z,80.58
2016-04-12T04:41:35.277Z,80.77
2016-04-12T04:42:35.296Z,80.21
2016-04-12T04:43:35.299Z,80.11
2016-04-12T04:44:35.317Z,79.92
2016-04-12T04:45:35.335Z,80.02
2016-04-12T04:46:35.354Z,79.92
2016-04-12T04:47:35.450Z,79.92
2016-04-12T04:48:35.390Z,79.49
2016-04-12T04:49:35.409Z,79.77
2016-04-12T04:50:35.412Z,79.49
2016-04-12T04:51:35.445Z,78.91
2016-04-12T04:52:35.448Z,79.68
2016-04-12T04:53:35.466Z,79.3
2016-04-12T04:54:35.470Z,79.01
2016-04-12T04:55:35.503Z,78.72
2016-04-12T04:56:35.522Z,78.82
2016-04-12T04:57:35.524Z,79.01
2016-04-12T04:58:35.541Z,79.01
2016-04-12T04:59:35.561Z,78.53
2016-04-12T05:00:35.578Z,78.25
2016-04-12T05:01:35.597Z,78.53
2016-04-12T05:02:35.631Z,78.16
2016-04-12T05:03:35.618Z,77.68
2016-04-12T05:04:35.636Z,78.06
2016-04-12T05:05:35.671Z,78.25
2016-04-12T05:06:35.689Z,77.68
2016-04-12T05:07:35.691Z,77.68
2016-04-12T05:08:35.757Z,77.34
2016-04-12T05:09:35.728Z,77.53
2016-04-12T05:10:35.741Z,77.53
2016-04-12T05:11:35.759Z,77.53
2016-04-12T05:12:35.776Z,76.76
2016-04-12T05:13:35.796Z,76.76
2016-04-12T05:14:35.814Z,77.53
2016-04-12T05:15:35.831Z,76.76
2016-04-12T05:16:35.851Z,76.76
2016-04-12T05:17:35.947Z,76.76
2016-04-12T05:18:35.872Z,76.86
2016-04-12T05:19:35.889Z,76.86
2016-04-12T05:20:35.923Z,76.67
2016-04-12T05:21:35.926Z,77.15
2016-04-12T05:22:35.944Z,77.15
2016-04-12T05:23:35.947Z,76.76
2016-04-12T05:24:35.981Z,76.57
2016-04-12T05:25:36.000Z,76.57
2016-04-12T05:26:36.003Z,76.57
2016-04-12T05:27:36.021Z,76.39
2016-04-12T05:28:36.039Z,76.39
2016-04-12T05:29:36.057Z,76.1
2016-04-12T05:30:36.075Z,76.01
2016-04-12T05:31:36.094Z,76.2
2016-04-12T05:32:36.112Z,76.01
2016-04-12T05:33:36.146Z,76.1
2016-04-12T05:34:36.148Z,75.24
2016-04-12T05:35:36.152Z,75.34
2016-04-12T05:36:36.185Z,75.72
2016-04-12T05:37:36.187Z,75.53
2016-04-12T05:38:36.207Z,75.43
2016-04-12T05:39:36.084Z,75.05
2016-04-12T05:40:36.259Z,74.96
2016-04-12T05:41:36.262Z,74.77
2016-04-12T05:42:36.279Z,74.87
2016-04-12T05:43:36.298Z,74.48
2016-04-12T05:44:36.316Z,74.9
2016-04-12T05:45:36.179Z,74.52
2016-04-12T05:46:36.353Z,74.71
2016-04-12T05:47:36.371Z,74.8
2016-04-12T05:48:36.373Z,74.04
2016-04-12T05:49:36.408Z,74.04
2016-04-12T05:50:36.411Z,73.85
2016-04-12T05:51:36.428Z,73.76
2016-04-12T05:52:36.447Z,73.66
2016-04-12T05:53:36.466Z,73.38
2016-04-12T05:54:36.484Z,73.28
2016-04-12T05:55:36.502Z,73.38
2016-04-12T05:56:36.505Z,73.38
2016-04-12T05:57:36.539Z,73.38
2016-04-12T05:58:36.572Z,73.47
2016-04-12T05:59:36.560Z,72.9
2016-04-12T06:00:36.578Z,72.81
2016-04-12T06:01:36.596Z,73.28
2016-04-12T06:02:36.615Z,72.33
2016-04-12T06:03:36.633Z,72.24
2016-04-12T06:04:36.652Z,72.24
2016-04-12T06:05:36.669Z,71.86
2016-04-12T06:06:36.671Z,71.57
2016-04-12T06:07:36.707Z,71.42
2016-04-12T06:08:36.724Z,71.42
2016-04-12T06:09:36.743Z,70.94
2016-04-12T06:10:36.762Z,70.56
2016-04-12T06:11:36.779Z,70.47
2016-04-12T06:12:36.782Z,70.18
2016-04-12T06:13:36.800Z,70.4
2016-04-12T06:14:36.834Z,69.83
2016-04-12T06:15:36.837Z,69.93
2016-04-12T06:16:36.856Z,69.83
2016-04-12T06:17:36.889Z,69.54
2016-04-12T06:18:36.892Z,69.17
2016-04-12T06:19:36.911Z,69.07
2016-04-12T06:20:36.928Z,68.88
2016-04-12T06:21:36.931Z,68.02
2016-04-12T06:22:36.981Z,68.02
2016-04-12T06:23:36.984Z,67.64
2016-04-12T06:24:37.002Z,67.48
2016-04-12T06:25:37.020Z,67.29
2016-04-12T06:26:37.039Z,67.29
2016-04-12T06:27:37.057Z,67.29
2016-04-12T06:28:37.074Z,67.2
2016-04-12T06:29:37.094Z,67.29
2016-04-12T06:30:37.111Z,67.1
2016-04-12T06:31:37.130Z,67.2
2016-04-12T06:32:37.149Z,67.68
2016-04-12T06:33:37.166Z,67.48
2016-04-12T06:34:37.185Z,66.72
2016-04-12T06:35:37.188Z,67
2016-04-12T06:36:37.222Z,67.2
2016-04-12T06:37:37.240Z,66.34
2016-04-12T06:38:37.258Z,65.99
2016-04-12T06:39:37.261Z,65.13
2016-04-12T06:40:37.296Z,64.56
2016-04-12T06:41:37.313Z,63.54
2016-04-12T06:42:37.331Z,62.78
2016-04-12T06:43:37.350Z,62.59
2016-04-12T06:44:37.368Z,62.88
2016-04-12T06:45:37.387Z,62.21
2016-04-12T06:46:37.451Z,62.49
2016-04-12T06:47:37.423Z,62.4
2016-04-12T06:48:37.442Z,61.73
2016-04-12T06:49:37.459Z,61.63
2016-04-12T06:50:37.478Z,61.57
2016-04-12T06:51:37.497Z,60.81
2016-04-12T06:52:37.515Z,59.95
2016-04-12T06:53:37.548Z,60.24
2016-04-12T06:54:37.567Z,60.14
2016-04-12T06:55:37.554Z,60.42
2016-04-12T06:56:37.604Z,60.42
2016-04-12T06:57:37.622Z,60.81
2016-04-12T06:58:37.625Z,60.9
2016-04-12T06:59:37.658Z,61
2016-04-12T07:00:37.661Z,61.57
2016-04-12T07:01:37.694Z,61.63
2016-04-12T07:02:37.744Z,61.16
2016-04-12T07:03:37.763Z,61.54
2016-04-12T07:04:37.750Z,62.11
2016-04-12T07:05:37.768Z,61.92
2016-04-12T07:06:37.787Z,61.92
2016-04-12T07:07:37.836Z,61.54
2016-04-12T07:08:37.838Z,61.44
2016-04-12T07:09:37.841Z,61.63
2016-04-12T07:10:37.860Z,61.16
2016-04-12T07:11:37.893Z,61.16
2016-04-12T07:12:37.896Z,61.73
2016-04-12T07:13:37.915Z,61.44
2016-04-12T07:14:37.934Z,61.44
2016-04-12T07:15:37.951Z,61.44
2016-04-12T07:16:37.970Z,61.73
2016-04-12T07:17:38.004Z,61.66
2016-04-12T07:18:38.006Z,60.97
2016-04-12T07:19:38.056Z,61.38
2016-04-12T07:20:38.059Z,61.1
2016-04-12T07:21:38.078Z,61.1
2016-04-12T07:22:38.095Z,61.66
2016-04-12T07:23:38.114Z,61.29
2016-04-12T07:24:38.131Z,61.76
2016-04-12T07:25:38.150Z,61.38
2016-04-12T07:26:38.169Z,61.57
2016-04-12T07:27:38.187Z,61
2016-04-12T07:28:38.221Z,60.9
2016-04-12T07:29:38.239Z,60.81
2016-04-12T07:30:38.242Z,60.33
2016-04-12T07:31:38.260Z,60.61
2016-04-12T07:32:38.294Z,60.42
2016-04-12T07:33:38.313Z,60.55
2016-04-12T07:34:38.331Z,60.61
2016-04-12T07:35:38.349Z,59.98
2016-04-12T07:36:38.367Z,59.95
2016-04-12T07:37:38.386Z,59.66
2016-04-12T07:38:38.419Z,59.78
2016-04-12T07:39:38.422Z,59.78
2016-04-12T07:40:38.441Z,60.14
2016-04-12T07:41:38.693Z,60.04
2016-04-12T07:42:38.496Z,60.04
2016-04-12T07:43:38.547Z,60.14
2016-04-12T07:44:37.879Z,59.95
2016-04-12T07:45:38.695Z,60.14
2016-04-12T07:46:38.762Z,60.04
2016-04-12T07:47:38.810Z,59.78
2016-04-12T07:48:38.862Z,59.59
2016-04-12T07:49:38.912Z,59.12
2016-04-12T07:50:38.949Z,59.22
2016-04-12T07:51:38.969Z,58.54
2016-04-12T07:52:39.003Z,58.93
2016-04-12T07:53:39.028Z,58.54
2016-04-12T07:54:39.067Z,58.64
2016-04-12T07:55:39.076Z,58.19
2016-04-12T07:56:39.116Z,58
2016-04-12T07:57:39.141Z,58.29
2016-04-12T07:58:39.162Z,57.9
2016-04-12T07:59:39.182Z,57.9
2016-04-12T08:00:39.203Z,57.53
2016-04-12T08:01:39.238Z,57.71
2016-04-12T08:02:39.102Z,57.55
2016-04-12T08:03:39.278Z,57.26
2016-04-12T08:04:39.298Z,57.55
2016-04-12T08:05:39.317Z,57.26
2016-04-12T08:06:39.335Z,56.6
2016-04-12T08:07:39.355Z,55.93
2016-04-12T08:08:39.378Z,56.02
2016-04-12T08:09:39.397Z,55.64
2016-04-12T08:10:39.415Z,56.24
2016-04-12T08:11:39.450Z,56.02
2016-04-12T08:12:39.468Z,55.96
2016-04-12T08:13:39.486Z,55.96
2016-04-12T08:14:39.510Z,56.53
2016-04-12T08:15:39.528Z,55.1
2016-04-12T08:16:39.562Z,56.05
2016-04-12T08:17:39.565Z,55.31
2016-04-12T08:18:39.599Z,54.33
2016-04-12T08:19:39.601Z,53.59
2016-04-12T08:20:39.620Z,53.49
2016-04-12T08:21:39.638Z,53.02
2016-04-12T08:22:39.672Z,52.73
2016-04-12T08:23:39.690Z,52.44
2016-04-12T08:24:39.741Z,51.68
2016-04-12T08:25:39.743Z,51.39
2016-04-12T08:26:39.760Z,50.36
2016-04-12T08:27:39.779Z,50.07
2016-04-12T08:28:39.813Z,49.98
2016-04-12T08:29:39.816Z,50.36
2016-04-12T08:30:39.835Z,51.48
2016-04-12T08:31:39.852Z,51.87
2016-04-12T08:32:39.887Z,52.15
2016-04-12T08:33:39.904Z,52.34
2016-04-12T08:34:39.923Z,52.89
2016-04-12T08:35:39.942Z,53.56
2016-04-12T08:36:39.960Z,54.04
2016-04-12T08:37:39.993Z,54.23
2016-04-12T08:38:39.262Z,54.43
2016-04-12T08:39:40.031Z,53.85
2016-04-12T08:40:40.034Z,54.43
2016-04-12T08:41:40.067Z,54.52
2016-04-12T08:42:40.101Z,54.21
2016-04-12T08:43:40.120Z,53.47
2016-04-12T08:44:40.122Z,52.99
2016-04-12T08:45:40.156Z,52.61
2016-04-12T08:46:40.175Z,52.22
2016-04-12T08:47:40.192Z,52.83
2016-04-12T08:48:40.211Z,52.34
2016-04-12T08:49:40.230Z,52.25
2016-04-12T08:50:40.263Z,52.34
2016-04-12T08:51:40.281Z,52.25
2016-04-12T08:52:40.316Z,52.15
2016-04-12T08:53:40.333Z,52.34
2016-04-12T08:54:40.336Z,53.08
2016-04-12T08:55:40.355Z,52.83
2016-04-12T08:56:40.389Z,53.47
2016-04-12T08:57:40.407Z,53.28
2016-04-12T08:58:44.444Z,54.61
2016-04-12T09:00:00.634Z,54.33
2016-04-12T09:00:48.230Z,53.94
2016-04-12T09:03:25.298Z,53.47
2016-04-12T09:04:46.897Z,53.37
2016-04-12T09:07:07.653Z,53.66
2016-04-12T09:08:19.499Z,53.97
2016-04-12T09:10:09.290Z,54.33
2016-04-12T09:10:38.072Z,53.94
2016-04-12T09:11:38.075Z,54.33
2016-04-12T09:12:47.111Z,54.8
2016-04-12T09:13:38.080Z,53.3
2016-04-12T09:14:38.098Z,53.3
2016-04-12T09:15:38.116Z,53.3
2016-04-12T09:16:38.135Z,52.92
2016-04-12T09:17:38.153Z,53.2
2016-04-12T09:18:38.125Z,53.2
2016-04-12T09:19:38.205Z,52.44
2016-04-12T09:20:38.224Z,52.15
2016-04-12T09:21:38.257Z,52.47
2016-04-12T09:22:38.276Z,52.54
2016-04-12T09:23:38.294Z,52.37
2016-04-12T09:24:38.297Z,52.28
2016-04-12T09:25:38.330Z,51.29
2016-04-12T09:26:38.349Z,50.74
2016-04-12T09:27:38.383Z,49.69
2016-04-12T09:28:38.385Z,49.98
2016-04-12T09:29:38.420Z,50.17
2016-04-12T09:30:38.438Z,50.26
2016-04-12T09:31:38.457Z,50.77
2016-04-12T09:32:38.474Z,49.24
2016-04-12T09:33:38.509Z,49.52
2016-04-12T09:34:38.527Z,49.52
2016-04-12T09:35:38.546Z,48.85
2016-04-12T09:36:38.564Z,49.91
2016-04-12T09:37:38.582Z,49.91
2016-04-12T09:38:38.600Z,49.71
2016-04-12T09:39:38.618Z,49.26
2016-04-12T09:40:38.653Z,49.16
2016-04-12T09:41:38.671Z,48.21
2016-04-12T09:42:38.689Z,49.07
2016-04-12T09:43:38.723Z,49.65
2016-04-12T09:44:38.788Z,48.9
2016-04-12T09:45:38.759Z,48.43
2016-04-12T09:46:38.778Z,49.19
2016-04-12T09:47:38.812Z,48.52
2016-04-12T09:48:38.799Z,49.38
2016-04-12T09:49:38.849Z,49
2016-04-12T09:50:38.867Z,49.29
2016-04-12T09:51:38.885Z,48.97
2016-04-12T09:52:38.918Z,50.12
2016-04-12T09:53:38.937Z,49.93
2016-04-12T09:54:38.956Z,49.84
2016-04-12T09:55:38.990Z,50.99
2016-04-12T09:56:39.008Z,50.89
2016-04-12T09:57:39.026Z,51.08
2016-04-12T09:58:39.060Z,50.22
2016-04-12T09:59:39.079Z,51.28
2016-04-12T10:00:39.082Z,51.08
2016-04-12T10:01:39.132Z,52.11
2016-04-12T10:02:39.180Z,51.85
2016-04-12T10:03:39.214Z,51.15
2016-04-12T10:04:39.185Z,51.37
2016-04-12T10:05:39.204Z,51.08
2016-04-12T10:06:39.222Z,49.93
2016-04-12T10:07:39.257Z,49.26
2016-04-12T10:08:39.275Z,48.78
2016-04-12T10:09:39.293Z,48.43
2016-04-12T10:10:39.311Z,48.33
2016-04-12T10:11:39.345Z,48.23
2016-04-12T10:12:39.364Z,49.1
2016-04-12T10:13:39.381Z,49.38
2016-04-12T10:14:39.384Z,49.76
2016-04-12T10:15:39.418Z,50.7
2016-04-12T10:16:39.453Z,51.37
2016-04-12T10:17:39.470Z,50.79
2016-04-12T10:19:39.507Z,51.95
2016-04-12T10:20:39.541Z,51.28
2016-04-12T10:21:39.560Z,50.41
2016-04-12T10:22:39.578Z,50.22
2016-04-12T10:23:39.612Z,49.84
2016-04-12T10:24:39.614Z,49.84
2016-04-12T10:25:39.648Z,49.16
2016-04-12T10:26:39.666Z,49.38
2016-04-12T10:27:39.685Z,49.26
2016-04-12T10:28:39.704Z,49.1
2016-04-12T10:29:39.752Z,48.33
2016-04-12T10:30:39.755Z,48.61
2016-04-12T10:31:39.774Z,48.43
2016-04-12T10:32:39.792Z,47.75
2016-04-12T10:33:39.842Z,48.13
2016-04-12T10:34:39.845Z,48.61
2016-04-12T10:35:39.862Z,49.1
2016-04-12T10:36:39.897Z,48.71
2016-04-12T10:37:39.931Z,48.43
2016-04-12T10:38:39.934Z,46.6
2016-04-12T10:39:39.983Z,46.41
2016-04-12T10:40:40.001Z,45.83
2016-04-12T10:41:40.003Z,44.78
2016-04-12T10:42:40.022Z,44.68
2016-04-12T10:43:40.041Z,44.01
2016-04-12T10:44:40.075Z,44.42
2016-04-12T10:45:40.093Z,44.7
2016-04-12T10:46:40.111Z,44.9
2016-04-12T10:47:40.130Z,44.8
2016-04-12T10:48:40.164Z,44.23
2016-04-12T10:49:40.182Z,43.27
2016-04-12T10:50:40.216Z,42.9
2016-04-12T10:51:40.233Z,42.81
2016-04-12T10:52:40.237Z,43
2016-04-12T10:53:40.286Z,43.17
2016-04-12T10:54:40.320Z,43.07
2016-04-12T10:55:40.323Z,43.36
2016-04-12T10:56:40.341Z,42.3
2016-04-12T10:57:40.360Z,42.02
2016-04-12T10:58:40.393Z,41.35
2016-04-12T10:59:40.412Z,40.99
2016-04-12T11:00:40.446Z,40.79
2016-04-12T11:01:40.448Z,40.89
2016-04-12T11:02:40.482Z,41.08
2016-04-12T11:03:40.501Z,41.08
2016-04-12T11:04:40.518Z,40.89
2016-04-12T11:05:40.553Z,40.89
2016-04-12T11:06:40.571Z,40.99
2016-04-12T11:07:40.589Z,41.08
2016-04-12T11:08:40.623Z,41.08
2016-04-12T11:09:40.627Z,40.12
2016-04-12T11:10:40.660Z,39.83
2016-04-12T11:11:40.725Z,40.12
2016-04-12T11:12:40.728Z,41.35
2016-04-12T11:13:40.777Z,41.93
2016-04-12T11:14:40.781Z,42.5
2016-04-12T11:15:40.783Z,42.57
2016-04-12T11:16:40.801Z,43.36
2016-04-12T11:17:40.819Z,43.05
2016-04-12T11:18:40.838Z,42.77
2016-04-12T11:19:40.872Z,41.44
2016-04-12T11:20:40.889Z,42.3
2016-04-12T11:21:40.908Z,42.69
2016-04-12T11:22:40.942Z,43.17
2016-04-12T11:23:40.961Z,43.24
2016-04-12T11:24:40.995Z,43.34
2016-04-12T11:25:41.294Z,44.3
2016-04-12T11:26:41.016Z,44.2
2016-04-12T11:27:41.033Z,44.3
2016-04-12T11:28:41.068Z,44.4
2016-04-12T11:29:41.086Z,44.3
2016-04-12T11:30:40.949Z,44.3
2016-04-12T11:31:41.139Z,43.44
2016-04-12T11:32:41.171Z,42.96
2016-04-12T11:33:41.191Z,43.24
2016-04-12T11:34:41.210Z,42.88
2016-04-12T11:35:41.227Z,42.79
2016-04-12T11:36:41.262Z,41.93
2016-04-12T11:37:41.279Z,42.79
2016-04-12T11:38:41.298Z,42.88
2016-04-12T11:39:41.315Z,42.5
2016-04-12T11:40:41.350Z,42.6
2016-04-12T11:41:41.368Z,42.11
2016-04-12T11:42:41.402Z,42.79
2016-04-12T11:43:41.405Z,42.79
2016-04-12T11:44:41.440Z,41.83
2016-04-12T11:45:41.442Z,42.6
2016-04-12T11:46:41.475Z,42.69
2016-04-12T11:47:41.509Z,42.21
2016-04-12T11:48:41.528Z,41.93
2016-04-12T11:49:41.547Z,41.08
2016-04-12T11:50:42.095Z,40.99
2016-04-12T11:51:41.614Z,40.99
2016-04-12T11:52:41.616Z,40.99
2016-04-12T11:53:41.650Z,41.08
2016-04-12T11:54:55.750Z,40.6
2016-04-12T11:55:41.734Z,40.89
2016-04-12T11:56:41.736Z,40.79
2016-04-12T11:57:41.739Z,41.27
2016-04-12T11:58:41.758Z,41.46
2016-04-12T11:59:41.777Z,40.41
2016-04-12T12:00:41.795Z,40.91
2016-04-12T12:01:41.829Z,39.85
2016-04-12T12:02:41.847Z,40.33
2016-04-12T12:03:41.880Z,40.05
2016-04-12T12:04:41.899Z,40.05
2016-04-12T12:05:41.918Z,40.52
2016-04-12T12:06:41.935Z,41
2016-04-12T12:07:41.970Z,40.72
2016-04-12T12:08:41.988Z,40.79
2016-04-12T12:09:42.006Z,40.7
2016-04-12T12:10:42.040Z,41.08
2016-04-12T12:11:42.058Z,40.89
2016-04-12T12:12:42.092Z,41.37
2016-04-12T12:13:42.112Z,40.62
2016-04-12T12:14:42.145Z,40.05
2016-04-12T12:15:42.162Z,39.76
2016-04-12T12:16:42.165Z,39.85
2016-04-12T12:17:42.200Z,39.66
2016-04-12T12:18:42.218Z,39.78
2016-04-12T12:19:42.253Z,39.68
2016-04-12T12:20:42.270Z,39.01
2016-04-12T12:21:42.273Z,38.54
2016-04-12T12:22:42.307Z,37.68
2016-04-12T12:23:42.341Z,38.04
2016-04-12T12:24:42.359Z,38.72
2016-04-12T12:25:41.628Z,38.72
2016-04-12T12:26:42.411Z,38.34
2016-04-12T12:27:42.430Z,38.34
2016-04-12T12:28:42.464Z,38.04
2016-04-12T12:29:42.482Z,37.77
2016-04-12T12:30:42.500Z,37.77
2016-04-12T12:31:42.519Z,37.59
2016-04-12T12:32:42.552Z,37.39
2016-04-12T12:33:42.571Z,37.59
2016-04-12T12:34:42.605Z,36.82
2016-04-12T12:35:42.623Z,37.01
2016-04-12T12:36:42.485Z,36.62
2016-04-12T12:37:42.660Z,36.64
2016-04-12T12:38:42.679Z,36.64
2016-04-12T12:39:42.727Z,36.35
2016-04-12T12:40:42.730Z,36.64
2016-04-12T12:41:42.764Z,36.35
2016-04-12T12:42:42.798Z,37.51
2016-04-12T12:43:42.817Z,37.12
2016-04-12T12:44:42.835Z,37.22
2016-04-12T12:45:42.869Z,36.64
2016-04-12T12:46:42.887Z,36.25
2016-04-12T12:47:42.905Z,36.74
2016-04-12T12:48:42.939Z,37.41
2016-04-12T12:49:42.958Z,37.02
2016-04-12T12:50:42.991Z,36.45
2016-04-12T12:51:42.995Z,36.62
2016-04-12T12:52:43.044Z,36.82
2016-04-12T12:53:43.061Z,37.02
2016-04-12T12:54:43.111Z,37.41
2016-04-12T12:55:43.099Z,36.64
2016-04-12T12:56:43.133Z,36.27
2016-04-12T12:57:43.150Z,35.1
2016-04-12T12:58:43.169Z,35.12
2016-04-12T12:59:43.203Z,34.83
2016-04-12T13:00:43.237Z,35.31
2016-04-12T13:01:43.240Z,35.02
2016-04-12T13:02:43.289Z,35.31